sensor_id;sensor_type;location;lat;lon;timestamp;P1;durP1;ratioP1;P2;durP2;ratioP2
25359;SDS011;13311;51.386;0.016;2023-09-07T00:02:20;101.10;;;72.72;;
25359;SDS011;13311;51.386;0.016;2023-09-07T00:07:21;104.05;;;72.95;;
25359;SDS011;13311;51.386;0.016;2023-09-07T00:12:22;96.55;;;70.95;;
25359;SDS011;13311;51.386;0.016;2023-09-07T00:17:22;101.18;;;71.68;;
25359;SDS011;13311;51.386;0.016;2023-09-07T00:22:24;94.93;;;69.78;;
25359;SDS011;13311;51.386;0.016;2023-09-07T00:27:25;94.18;;;69.07;;
25359;SDS011;13311;51.386;0.016;2023-09-07T00:32:26;90.25;;;66.00;;
25359;SDS011;13311;51.386;0.016;2023-09-07T00:37:27;87.72;;;64.40;;
25359;SDS011;13311;51.386;0.016;2023-09-07T00:42:27;88.45;;;67.82;;
25359;SDS011;13311;51.386;0.016;2023-09-07T00:47:28;85.80;;;63.00;;
25359;SDS011;13311;51.386;0.016;2023-09-07T00:52:29;85.38;;;62.75;;
25359;SDS011;13311;51.386;0.016;2023-09-07T00:57:30;80.18;;;60.65;;
25359;SDS011;13311;51.386;0.016;2023-09-07T01:02:32;88.72;;;63.40;;
25359;SDS011;13311;51.386;0.016;2023-09-07T01:07:38;93.95;;;64.65;;
25359;SDS011;13311;51.386;0.016;2023-09-07T01:12:44;85.53;;;61.03;;
25359;SDS011;13311;51.386;0.016;2023-09-07T01:17:45;84.47;;;62.35;;
25359;SDS011;13311;51.386;0.016;2023-09-07T01:22:46;86.70;;;61.78;;
25359;SDS011;13311;51.386;0.016;2023-09-07T01:27:47;85.18;;;62.30;;
25359;SDS011;13311;51.386;0.016;2023-09-07T01:32:50;89.25;;;62.80;;
25359;SDS011;13311;51.386;0.016;2023-09-07T01:37:51;91.07;;;59.13;;
25359;SDS011;13311;51.386;0.016;2023-09-07T01:42:51;79.93;;;55.00;;
25359;SDS011;13311;51.386;0.016;2023-09-07T01:47:52;67.07;;;44.22;;
25359;SDS011;13311;51.386;0.016;2023-09-07T01:52:53;60.42;;;40.67;;
25359;SDS011;13311;51.386;0.016;2023-09-07T01:57:53;72.68;;;42.08;;
25359;SDS011;13311;51.386;0.016;2023-09-07T02:02:54;66.43;;;42.25;;
25359;SDS011;13311;51.386;0.016;2023-09-07T02:07:55;64.28;;;43.10;;
25359;SDS011;13311;51.386;0.016;2023-09-07T02:12:56;53.05;;;39.97;;
25359;SDS011;13311;51.386;0.016;2023-09-07T02:17:57;47.85;;;34.20;;
25359;SDS011;13311;51.386;0.016;2023-09-07T02:22:59;44.72;;;32.85;;
25359;SDS011;13311;51.386;0.016;2023-09-07T02:28:00;45.97;;;34.90;;
25359;SDS011;13311;51.386;0.016;2023-09-07T02:33:01;60.22;;;45.28;;
25359;SDS011;13311;51.386;0.016;2023-09-07T02:38:02;71.22;;;49.35;;
25359;SDS011;13311;51.386;0.016;2023-09-07T02:43:03;82.53;;;54.50;;
25359;SDS011;13311;51.386;0.016;2023-09-07T02:48:04;91.78;;;58.63;;
25359;SDS011;13311;51.386;0.016;2023-09-07T02:53:06;83.90;;;55.90;;
25359;SDS011;13311;51.386;0.016;2023-09-07T02:58:06;89.95;;;60.42;;
25359;SDS011;13311;51.386;0.016;2023-09-07T03:03:07;95.57;;;62.97;;
25359;SDS011;13311;51.386;0.016;2023-09-07T03:08:08;103.20;;;67.10;;
25359;SDS011;13311;51.386;0.016;2023-09-07T03:13:08;112.78;;;68.18;;
25359;SDS011;13311;51.386;0.016;2023-09-07T03:18:09;121.07;;;68.95;;
25359;SDS011;13311;51.386;0.016;2023-09-07T03:23:10;118.70;;;68.43;;
25359;SDS011;13311;51.386;0.016;2023-09-07T03:28:11;108.75;;;66.78;;
25359;SDS011;13311;51.386;0.016;2023-09-07T03:33:11;114.93;;;69.97;;
25359;SDS011;13311;51.386;0.016;2023-09-07T03:38:12;105.82;;;66.78;;
25359;SDS011;13311;51.386;0.016;2023-09-07T03:43:13;108.05;;;65.85;;
25359;SDS011;13311;51.386;0.016;2023-09-07T03:48:14;103.97;;;65.72;;
25359;SDS011;13311;51.386;0.016;2023-09-07T03:53:15;107.38;;;64.03;;
25359;SDS011;13311;51.386;0.016;2023-09-07T03:58:16;106.13;;;63.63;;
25359;SDS011;13311;51.386;0.016;2023-09-07T04:03:17;100.05;;;63.10;;
25359;SDS011;13311;51.386;0.016;2023-09-07T04:08:17;96.57;;;59.65;;
25359;SDS011;13311;51.386;0.016;2023-09-07T04:13:19;89.07;;;60.42;;
25359;SDS011;13311;51.386;0.016;2023-09-07T04:18:20;93.22;;;61.10;;
25359;SDS011;13311;51.386;0.016;2023-09-07T04:23:21;98.35;;;62.00;;
25359;SDS011;13311;51.386;0.016;2023-09-07T04:28:22;94.78;;;61.38;;
25359;SDS011;13311;51.386;0.016;2023-09-07T04:33:22;91.93;;;58.78;;
25359;SDS011;13311;51.386;0.016;2023-09-07T04:38:23;88.47;;;58.40;;
25359;SDS011;13311;51.386;0.016;2023-09-07T04:43:24;87.80;;;56.53;;
25359;SDS011;13311;51.386;0.016;2023-09-07T04:48:24;85.10;;;55.63;;
25359;SDS011;13311;51.386;0.016;2023-09-07T04:53:27;85.03;;;56.28;;
25359;SDS011;13311;51.386;0.016;2023-09-07T04:58:30;118.25;;;66.78;;
25359;SDS011;13311;51.386;0.016;2023-09-07T05:03:31;126.25;;;67.20;;
25359;SDS011;13311;51.386;0.016;2023-09-07T05:08:33;143.55;;;72.88;;
25359;SDS011;13311;51.386;0.016;2023-09-07T05:13:34;117.65;;;70.53;;
25359;SDS011;13311;51.386;0.016;2023-09-07T05:18:35;106.13;;;64.10;;
25359;SDS011;13311;51.386;0.016;2023-09-07T05:23:35;107.88;;;68.15;;
25359;SDS011;13311;51.386;0.016;2023-09-07T05:28:36;119.63;;;71.82;;
25359;SDS011;13311;51.386;0.016;2023-09-07T05:33:37;126.88;;;74.32;;
25359;SDS011;13311;51.386;0.016;2023-09-07T05:38:37;124.28;;;75.00;;
25359;SDS011;13311;51.386;0.016;2023-09-07T05:43:38;123.70;;;72.50;;
25359;SDS011;13311;51.386;0.016;2023-09-07T05:48:39;131.88;;;74.97;;
25359;SDS011;13311;51.386;0.016;2023-09-07T05:53:40;150.80;;;77.70;;
25359;SDS011;13311;51.386;0.016;2023-09-07T05:58:40;129.90;;;78.78;;
25359;SDS011;13311;51.386;0.016;2023-09-07T06:03:41;140.77;;;79.07;;
25359;SDS011;13311;51.386;0.016;2023-09-07T06:08:42;123.03;;;77.60;;
25359;SDS011;13311;51.386;0.016;2023-09-07T06:13:42;119.32;;;75.57;;
25359;SDS011;13311;51.386;0.016;2023-09-07T06:18:43;144.55;;;78.68;;
25359;SDS011;13311;51.386;0.016;2023-09-07T06:23:44;144.00;;;80.45;;
25359;SDS011;13311;51.386;0.016;2023-09-07T06:28:45;131.57;;;78.03;;
25359;SDS011;13311;51.386;0.016;2023-09-07T06:33:46;125.50;;;76.88;;
25359;SDS011;13311;51.386;0.016;2023-09-07T06:38:46;120.53;;;73.72;;
25359;SDS011;13311;51.386;0.016;2023-09-07T06:43:47;135.73;;;80.88;;
25359;SDS011;13311;51.386;0.016;2023-09-07T06:48:47;130.07;;;80.45;;
25359;SDS011;13311;51.386;0.016;2023-09-07T06:53:48;130.75;;;80.20;;
25359;SDS011;13311;51.386;0.016;2023-09-07T06:58:51;130.27;;;79.03;;
25359;SDS011;13311;51.386;0.016;2023-09-07T07:03:51;124.93;;;77.90;;
25359;SDS011;13311;51.386;0.016;2023-09-07T07:08:53;110.60;;;73.00;;
25359;SDS011;13311;51.386;0.016;2023-09-07T07:13:53;113.70;;;72.70;;
25359;SDS011;13311;51.386;0.016;2023-09-07T07:18:54;99.97;;;65.47;;
25359;SDS011;13311;51.386;0.016;2023-09-07T07:23:55;93.18;;;63.90;;
25359;SDS011;13311;51.386;0.016;2023-09-07T07:28:55;81.50;;;56.55;;
25359;SDS011;13311;51.386;0.016;2023-09-07T07:33:56;70.93;;;55.45;;
25359;SDS011;13311;51.386;0.016;2023-09-07T07:38:57;65.70;;;51.05;;
25359;SDS011;13311;51.386;0.016;2023-09-07T07:43:57;64.97;;;51.25;;
25359;SDS011;13311;51.386;0.016;2023-09-07T07:48:58;72.50;;;51.58;;
25359;SDS011;13311;51.386;0.016;2023-09-07T07:53:59;73.15;;;49.65;;
25359;SDS011;13311;51.386;0.016;2023-09-07T07:58:59;55.92;;;45.03;;
25359;SDS011;13311;51.386;0.016;2023-09-07T08:04:00;48.38;;;40.22;;
25359;SDS011;13311;51.386;0.016;2023-09-07T08:09:01;65.55;;;49.40;;
25359;SDS011;13311;51.386;0.016;2023-09-07T08:14:02;67.50;;;49.13;;
25359;SDS011;13311;51.386;0.016;2023-09-07T08:19:03;54.50;;;45.15;;
25359;SDS011;13311;51.386;0.016;2023-09-07T08:24:04;34.15;;;26.33;;
25359;SDS011;13311;51.386;0.016;2023-09-07T08:29:05;44.35;;;36.08;;
25359;SDS011;13311;51.386;0.016;2023-09-07T08:34:08;53.80;;;43.67;;
25359;SDS011;13311;51.386;0.016;2023-09-07T08:39:09;52.45;;;41.17;;
25359;SDS011;13311;51.386;0.016;2023-09-07T08:44:15;43.08;;;32.65;;
25359;SDS011;13311;51.386;0.016;2023-09-07T08:49:18;52.22;;;41.30;;
25359;SDS011;13311;51.386;0.016;2023-09-07T08:54:19;48.58;;;41.58;;
25359;SDS011;13311;51.386;0.016;2023-09-07T08:59:22;46.15;;;37.85;;
25359;SDS011;13311;51.386;0.016;2023-09-07T09:04:23;47.22;;;38.28;;
25359;SDS011;13311;51.386;0.016;2023-09-07T09:09:25;49.83;;;38.80;;
25359;SDS011;13311;51.386;0.016;2023-09-07T09:14:26;44.40;;;34.55;;
25359;SDS011;13311;51.386;0.016;2023-09-07T09:19:31;43.40;;;34.58;;
25359;SDS011;13311;51.386;0.016;2023-09-07T09:24:35;46.78;;;36.95;;
25359;SDS011;13311;51.386;0.016;2023-09-07T09:29:36;44.97;;;37.17;;
25359;SDS011;13311;51.386;0.016;2023-09-07T09:34:37;35.05;;;30.70;;
25359;SDS011;13311;51.386;0.016;2023-09-07T09:39:38;37.00;;;30.10;;
25359;SDS011;13311;51.386;0.016;2023-09-07T09:44:40;34.10;;;26.50;;
25359;SDS011;13311;51.386;0.016;2023-09-07T09:49:43;28.30;;;21.95;;
25359;SDS011;13311;51.386;0.016;2023-09-07T09:54:44;36.53;;;28.55;;
25359;SDS011;13311;51.386;0.016;2023-09-07T09:59:46;27.70;;;23.13;;
25359;SDS011;13311;51.386;0.016;2023-09-07T10:04:48;30.83;;;26.65;;
25359;SDS011;13311;51.386;0.016;2023-09-07T10:09:51;25.98;;;18.80;;
25359;SDS011;13311;51.386;0.016;2023-09-07T10:14:56;35.40;;;27.83;;
25359;SDS011;13311;51.386;0.016;2023-09-07T10:20:03;23.58;;;19.08;;
25359;SDS011;13311;51.386;0.016;2023-09-07T10:25:17;28.25;;;23.23;;
25359;SDS011;13311;51.386;0.016;2023-09-07T10:30:22;32.83;;;23.90;;
25359;SDS011;13311;51.386;0.016;2023-09-07T10:35:24;24.02;;;17.75;;
25359;SDS011;13311;51.386;0.016;2023-09-07T10:40:28;38.10;;;19.88;;
25359;SDS011;13311;51.386;0.016;2023-09-07T10:45:29;24.63;;;14.30;;
25359;SDS011;13311;51.386;0.016;2023-09-07T10:50:30;22.40;;;16.38;;
25359;SDS011;13311;51.386;0.016;2023-09-07T10:55:35;26.63;;;20.00;;
25359;SDS011;13311;51.386;0.016;2023-09-07T11:00:40;20.35;;;13.55;;
25359;SDS011;13311;51.386;0.016;2023-09-07T11:05:40;17.38;;;13.02;;
25359;SDS011;13311;51.386;0.016;2023-09-07T11:10:41;10.95;;;9.80;;
25359;SDS011;13311;51.386;0.016;2023-09-07T11:15:42;19.38;;;12.95;;
25359;SDS011;13311;51.386;0.016;2023-09-07T11:20:43;18.20;;;13.80;;
25359;SDS011;13311;51.386;0.016;2023-09-07T11:25:44;18.15;;;13.95;;
25359;SDS011;13311;51.386;0.016;2023-09-07T11:30:48;16.65;;;11.13;;
25359;SDS011;13311;51.386;0.016;2023-09-07T11:35:53;18.65;;;12.90;;
25359;SDS011;13311;51.386;0.016;2023-09-07T11:40:54;19.55;;;12.80;;
25359;SDS011;13311;51.386;0.016;2023-09-07T11:45:55;7.35;;;6.45;;
25359;SDS011;13311;51.386;0.016;2023-09-07T11:50:57;14.77;;;10.77;;
25359;SDS011;13311;51.386;0.016;2023-09-07T11:55:58;17.20;;;9.10;;
25359;SDS011;13311;51.386;0.016;2023-09-07T12:00:59;12.02;;;8.10;;
25359;SDS011;13311;51.386;0.016;2023-09-07T12:06:00;13.65;;;9.10;;
25359;SDS011;13311;51.386;0.016;2023-09-07T12:11:01;6.95;;;5.40;;
25359;SDS011;13311;51.386;0.016;2023-09-07T12:16:02;10.52;;;7.25;;
25359;SDS011;13311;51.386;0.016;2023-09-07T12:21:03;11.90;;;7.93;;
25359;SDS011;13311;51.386;0.016;2023-09-07T12:26:03;7.70;;;5.47;;
25359;SDS011;13311;51.386;0.016;2023-09-07T12:31:04;8.77;;;5.70;;
25359;SDS011;13311;51.386;0.016;2023-09-07T12:36:05;5.57;;;5.03;;
25359;SDS011;13311;51.386;0.016;2023-09-07T12:41:09;4.57;;;3.80;;
25359;SDS011;13311;51.386;0.016;2023-09-07T12:46:10;4.80;;;4.30;;
25359;SDS011;13311;51.386;0.016;2023-09-07T12:51:10;6.28;;;3.75;;
25359;SDS011;13311;51.386;0.016;2023-09-07T12:56:11;6.43;;;4.65;;
25359;SDS011;13311;51.386;0.016;2023-09-07T13:01:13;10.02;;;4.78;;
25359;SDS011;13311;51.386;0.016;2023-09-07T13:06:15;5.20;;;4.10;;
25359;SDS011;13311;51.386;0.016;2023-09-07T13:11:17;24.10;;;5.90;;
25359;SDS011;13311;51.386;0.016;2023-09-07T13:16:18;4.00;;;3.60;;
25359;SDS011;13311;51.386;0.016;2023-09-07T13:21:19;4.28;;;3.88;;
25359;SDS011;13311;51.386;0.016;2023-09-07T13:26:19;4.85;;;4.28;;
25359;SDS011;13311;51.386;0.016;2023-09-07T13:31:20;3.60;;;3.30;;
25359;SDS011;13311;51.386;0.016;2023-09-07T13:36:21;5.88;;;3.85;;
25359;SDS011;13311;51.386;0.016;2023-09-07T13:41:22;6.25;;;4.15;;
25359;SDS011;13311;51.386;0.016;2023-09-07T13:46:23;4.85;;;4.22;;
25359;SDS011;13311;51.386;0.016;2023-09-07T13:51:24;5.50;;;4.60;;
25359;SDS011;13311;51.386;0.016;2023-09-07T13:56:25;4.85;;;4.30;;
25359;SDS011;13311;51.386;0.016;2023-09-07T14:01:26;3.95;;;3.47;;
25359;SDS011;13311;51.386;0.016;2023-09-07T14:06:26;3.25;;;2.95;;
25359;SDS011;13311;51.386;0.016;2023-09-07T14:11:27;5.65;;;3.60;;
25359;SDS011;13311;51.386;0.016;2023-09-07T14:16:28;3.50;;;3.20;;
25359;SDS011;13311;51.386;0.016;2023-09-07T14:21:28;4.03;;;3.28;;
25359;SDS011;13311;51.386;0.016;2023-09-07T14:26:29;3.75;;;3.13;;
25359;SDS011;13311;51.386;0.016;2023-09-07T14:31:30;3.92;;;3.63;;
25359;SDS011;13311;51.386;0.016;2023-09-07T14:36:30;4.18;;;3.78;;
25359;SDS011;13311;51.386;0.016;2023-09-07T14:41:31;6.25;;;4.20;;
25359;SDS011;13311;51.386;0.016;2023-09-07T14:46:32;5.88;;;3.88;;
25359;SDS011;13311;51.386;0.016;2023-09-07T14:51:33;5.55;;;4.63;;
25359;SDS011;13311;51.386;0.016;2023-09-07T14:56:34;5.00;;;4.03;;
25359;SDS011;13311;51.386;0.016;2023-09-07T15:01:35;4.60;;;3.70;;
25359;SDS011;13311;51.386;0.016;2023-09-07T15:06:36;7.60;;;3.97;;
25359;SDS011;13311;51.386;0.016;2023-09-07T15:11:37;4.90;;;4.10;;
25359;SDS011;13311;51.386;0.016;2023-09-07T15:16:38;6.63;;;3.88;;
25359;SDS011;13311;51.386;0.016;2023-09-07T15:21:39;6.60;;;4.50;;
25359;SDS011;13311;51.386;0.016;2023-09-07T15:26:43;5.28;;;4.38;;
25359;SDS011;13311;51.386;0.016;2023-09-07T15:31:45;5.07;;;3.72;;
25359;SDS011;13311;51.386;0.016;2023-09-07T15:36:46;4.78;;;4.00;;
25359;SDS011;13311;51.386;0.016;2023-09-07T15:41:47;3.83;;;3.53;;
25359;SDS011;13311;51.386;0.016;2023-09-07T15:46:49;5.18;;;4.22;;
25359;SDS011;13311;51.386;0.016;2023-09-07T15:51:50;4.63;;;3.70;;
25359;SDS011;13311;51.386;0.016;2023-09-07T15:56:51;5.35;;;4.45;;
25359;SDS011;13311;51.386;0.016;2023-09-07T16:01:52;5.78;;;4.63;;
25359;SDS011;13311;51.386;0.016;2023-09-07T16:06:52;5.05;;;3.80;;
25359;SDS011;13311;51.386;0.016;2023-09-07T16:11:54;4.65;;;4.00;;
25359;SDS011;13311;51.386;0.016;2023-09-07T16:16:54;7.60;;;4.28;;
25359;SDS011;13311;51.386;0.016;2023-09-07T16:21:55;4.43;;;4.03;;
25359;SDS011;13311;51.386;0.016;2023-09-07T16:26:56;5.35;;;4.57;;
25359;SDS011;13311;51.386;0.016;2023-09-07T16:31:57;10.95;;;6.22;;
25359;SDS011;13311;51.386;0.016;2023-09-07T16:36:57;10.20;;;5.68;;
25359;SDS011;13311;51.386;0.016;2023-09-07T16:41:58;9.18;;;6.13;;
25359;SDS011;13311;51.386;0.016;2023-09-07T16:46:59;11.95;;;6.35;;
25359;SDS011;13311;51.386;0.016;2023-09-07T16:51:59;12.30;;;6.30;;
25359;SDS011;13311;51.386;0.016;2023-09-07T16:57:00;9.90;;;5.50;;
25359;SDS011;13311;51.386;0.016;2023-09-07T17:02:01;11.93;;;6.32;;
25359;SDS011;13311;51.386;0.016;2023-09-07T17:07:01;9.43;;;6.30;;
25359;SDS011;13311;51.386;0.016;2023-09-07T17:12:04;9.30;;;5.57;;
25359;SDS011;13311;51.386;0.016;2023-09-07T17:17:08;8.93;;;5.93;;
25359;SDS011;13311;51.386;0.016;2023-09-07T17:22:10;9.88;;;6.47;;
25359;SDS011;13311;51.386;0.016;2023-09-07T17:27:13;9.20;;;5.50;;
25359;SDS011;13311;51.386;0.016;2023-09-07T17:32:14;17.50;;;7.55;;
25359;SDS011;13311;51.386;0.016;2023-09-07T17:37:14;12.90;;;6.45;;
25359;SDS011;13311;51.386;0.016;2023-09-07T17:42:15;10.80;;;7.28;;
25359;SDS011;13311;51.386;0.016;2023-09-07T17:47:16;10.57;;;6.65;;
25359;SDS011;13311;51.386;0.016;2023-09-07T17:52:18;7.57;;;6.55;;
25359;SDS011;13311;51.386;0.016;2023-09-07T17:57:18;14.70;;;8.93;;
25359;SDS011;13311;51.386;0.016;2023-09-07T18:02:20;13.27;;;9.68;;
25359;SDS011;13311;51.386;0.016;2023-09-07T18:07:23;11.77;;;8.85;;
25359;SDS011;13311;51.386;0.016;2023-09-07T18:12:25;12.63;;;8.73;;
25359;SDS011;13311;51.386;0.016;2023-09-07T18:17:25;10.82;;;9.00;;
25359;SDS011;13311;51.386;0.016;2023-09-07T18:22:27;13.73;;;9.43;;
25359;SDS011;13311;51.386;0.016;2023-09-07T18:27:27;12.85;;;9.32;;
25359;SDS011;13311;51.386;0.016;2023-09-07T18:32:28;12.82;;;9.18;;
25359;SDS011;13311;51.386;0.016;2023-09-07T18:37:29;11.48;;;8.70;;
25359;SDS011;13311;51.386;0.016;2023-09-07T18:42:32;11.25;;;8.98;;
25359;SDS011;13311;51.386;0.016;2023-09-07T18:47:33;10.90;;;8.77;;
25359;SDS011;13311;51.386;0.016;2023-09-07T18:52:36;12.10;;;9.68;;
25359;SDS011;13311;51.386;0.016;2023-09-07T18:57:37;20.75;;;11.13;;
25359;SDS011;13311;51.386;0.016;2023-09-07T19:02:38;16.13;;;13.27;;
25359;SDS011;13311;51.386;0.016;2023-09-07T19:07:39;17.00;;;13.98;;
25359;SDS011;13311;51.386;0.016;2023-09-07T19:12:40;14.00;;;12.52;;
25359;SDS011;13311;51.386;0.016;2023-09-07T19:17:41;15.00;;;12.82;;
25359;SDS011;13311;51.386;0.016;2023-09-07T19:22:42;18.70;;;13.57;;
25359;SDS011;13311;51.386;0.016;2023-09-07T19:27:43;18.33;;;13.25;;
25359;SDS011;13311;51.386;0.016;2023-09-07T19:32:44;17.13;;;14.27;;
25359;SDS011;13311;51.386;0.016;2023-09-07T19:37:44;16.73;;;13.27;;
25359;SDS011;13311;51.386;0.016;2023-09-07T19:42:45;21.17;;;13.15;;
25359;SDS011;13311;51.386;0.016;2023-09-07T19:47:46;22.75;;;13.38;;
25359;SDS011;13311;51.386;0.016;2023-09-07T19:52:46;16.00;;;11.88;;
25359;SDS011;13311;51.386;0.016;2023-09-07T19:57:47;20.23;;;11.65;;
25359;SDS011;13311;51.386;0.016;2023-09-07T20:02:48;15.93;;;10.48;;
25359;SDS011;13311;51.386;0.016;2023-09-07T20:07:49;11.25;;;10.05;;
25359;SDS011;13311;51.386;0.016;2023-09-07T20:12:50;14.82;;;11.57;;
25359;SDS011;13311;51.386;0.016;2023-09-07T20:17:51;14.07;;;11.32;;
25359;SDS011;13311;51.386;0.016;2023-09-07T20:22:53;12.38;;;10.07;;
25359;SDS011;13311;51.386;0.016;2023-09-07T20:27:53;13.75;;;10.80;;
25359;SDS011;13311;51.386;0.016;2023-09-07T20:32:54;9.20;;;7.95;;
25359;SDS011;13311;51.386;0.016;2023-09-07T20:37:55;7.65;;;6.85;;
25359;SDS011;13311;51.386;0.016;2023-09-07T20:42:59;13.02;;;7.03;;
25359;SDS011;13311;51.386;0.016;2023-09-07T20:48:03;9.48;;;7.18;;
25359;SDS011;13311;51.386;0.016;2023-09-07T20:53:04;10.50;;;6.25;;
25359;SDS011;13311;51.386;0.016;2023-09-07T20:58:05;9.45;;;7.03;;
25359;SDS011;13311;51.386;0.016;2023-09-07T21:03:06;7.68;;;6.07;;
25359;SDS011;13311;51.386;0.016;2023-09-07T21:08:06;10.55;;;7.20;;
25359;SDS011;13311;51.386;0.016;2023-09-07T21:13:07;8.13;;;6.35;;
25359;SDS011;13311;51.386;0.016;2023-09-07T21:18:08;7.88;;;5.78;;
25359;SDS011;13311;51.386;0.016;2023-09-07T21:23:08;7.57;;;5.93;;
25359;SDS011;13311;51.386;0.016;2023-09-07T21:28:12;11.68;;;6.80;;
25359;SDS011;13311;51.386;0.016;2023-09-07T21:33:13;8.45;;;5.82;;
25359;SDS011;13311;51.386;0.016;2023-09-07T21:38:13;9.30;;;5.20;;
25359;SDS011;13311;51.386;0.016;2023-09-07T21:43:14;17.08;;;6.43;;
25359;SDS011;13311;51.386;0.016;2023-09-07T21:48:15;16.98;;;6.13;;
25359;SDS011;13311;51.386;0.016;2023-09-07T21:53:16;14.65;;;5.32;;
25359;SDS011;13311;51.386;0.016;2023-09-07T21:58:16;13.63;;;5.20;;
25359;SDS011;13311;51.386;0.016;2023-09-07T22:03:17;7.13;;;4.60;;
25359;SDS011;13311;51.386;0.016;2023-09-07T22:08:18;5.05;;;4.40;;
25359;SDS011;13311;51.386;0.016;2023-09-07T22:13:19;6.15;;;4.70;;
25359;SDS011;13311;51.386;0.016;2023-09-07T22:18:19;6.40;;;4.93;;
25359;SDS011;13311;51.386;0.016;2023-09-07T22:23:20;7.28;;;4.82;;
25359;SDS011;13311;51.386;0.016;2023-09-07T22:28:21;5.45;;;4.90;;
25359;SDS011;13311;51.386;0.016;2023-09-07T22:33:22;8.57;;;4.97;;
25359;SDS011;13311;51.386;0.016;2023-09-07T22:38:22;7.93;;;5.22;;
25359;SDS011;13311;51.386;0.016;2023-09-07T22:43:23;9.13;;;5.25;;
25359;SDS011;13311;51.386;0.016;2023-09-07T22:48:24;9.23;;;5.93;;
25359;SDS011;13311;51.386;0.016;2023-09-07T22:53:25;6.40;;;5.35;;
25359;SDS011;13311;51.386;0.016;2023-09-07T22:58:25;6.95;;;4.90;;
25359;SDS011;13311;51.386;0.016;2023-09-07T23:03:26;5.32;;;4.80;;
25359;SDS011;13311;51.386;0.016;2023-09-07T23:08:27;6.32;;;4.47;;
25359;SDS011;13311;51.386;0.016;2023-09-07T23:13:31;6.97;;;4.78;;
25359;SDS011;13311;51.386;0.016;2023-09-07T23:18:34;6.20;;;5.03;;
25359;SDS011;13311;51.386;0.016;2023-09-07T23:23:35;6.72;;;4.85;;
25359;SDS011;13311;51.386;0.016;2023-09-07T23:28:39;6.72;;;4.75;;
25359;SDS011;13311;51.386;0.016;2023-09-07T23:33:39;4.88;;;4.28;;
25359;SDS011;13311;51.386;0.016;2023-09-07T23:38:40;4.88;;;3.97;;
25359;SDS011;13311;51.386;0.016;2023-09-07T23:43:41;5.13;;;4.10;;
25359;SDS011;13311;51.386;0.016;2023-09-07T23:48:42;6.60;;;4.40;;
25359;SDS011;13311;51.386;0.016;2023-09-07T23:53:42;6.50;;;4.68;;
25359;SDS011;13311;51.386;0.016;2023-09-07T23:58:43;6.35;;;4.78;;
